createdAt,value
2022-08-07T00:00:39.761Z,69.53
2022-08-07T00:03:08.780Z,72.12
2022-08-07T00:05:36.364Z,70.61
2022-08-07T00:08:04.873Z,69.92
2022-08-07T00:10:31.897Z,69.28
2022-08-07T00:13:02.140Z,69.66
2022-08-07T00:15:38.501Z,69.62
2022-08-07T00:18:18.877Z,69.79
2022-08-07T00:20:47.757Z,70.01
2022-08-07T00:23:14.713Z,69.97
2022-08-07T00:25:45.822Z,69.05
2022-08-07T00:28:21.995Z,69.99
2022-08-07T00:30:49.040Z,70.62
2022-08-07T00:33:15.910Z,70.48
2022-08-07T00:35:46.529Z,70.51
2022-08-07T00:38:16.377Z,71.66
2022-08-07T00:40:58.711Z,70.43
2022-08-07T00:43:59.326Z,71.05
2022-08-07T00:46:14.325Z,70.26
2022-08-07T00:48:42.068Z,70.06
2022-08-07T00:51:09.623Z,69.99
2022-08-07T00:53:38.878Z,70.88
2022-08-07T00:56:17.354Z,70.31
2022-08-07T00:58:46.786Z,70.43
2022-08-07T01:01:14.949Z,70.82
2022-08-07T01:03:56.313Z,70.39
2022-08-07T01:06:28.221Z,70.44
2022-08-07T01:08:56.386Z,70.56
2022-08-07T01:12:27.909Z,70.89
2022-08-07T01:14:12.682Z,70.78
2022-08-07T01:16:43.312Z,70.73
2022-08-07T01:19:19.165Z,71.05
2022-08-07T01:21:53.399Z,71.47
2022-08-07T01:24:25.641Z,70.96
2022-08-07T01:26:53.751Z,71.35
2022-08-07T01:29:27.700Z,70.88
2022-08-07T01:31:55.859Z,71.63
2022-08-07T01:34:30.786Z,70.41
2022-08-07T01:37:00.282Z,71.43
2022-08-07T01:39:40.603Z,71.56
2022-08-07T01:42:38.729Z,71.59
2022-08-07T01:45:18.100Z,71.74
2022-08-07T01:48:19.572Z,72.42
2022-08-07T01:50:43.262Z,72.55
2022-08-07T01:53:20.978Z,72.38
2022-08-07T01:55:58.260Z,72.51
2022-08-07T01:58:29.807Z,72.73
2022-08-07T02:01:25.465Z,72.99
2022-08-07T02:03:57.799Z,72.74
2022-08-07T02:06:30.760Z,74.54
2022-08-07T02:09:01.663Z,73.97
2022-08-07T02:12:03.268Z,74.12
2022-08-07T02:14:40.215Z,74.24
2022-08-07T02:17:10.908Z,74.54
2022-08-07T02:20:04.874Z,75.25
2022-08-07T02:22:26.986Z,75.23
2022-08-07T02:24:55.808Z,75.22
2022-08-07T02:27:23.846Z,76.08
2022-08-07T02:29:54.517Z,75.78
2022-08-07T02:32:27.015Z,77.17
2022-08-07T02:34:57.516Z,77.55
2022-08-07T02:37:27.323Z,76.80
2022-08-07T02:40:31.077Z,76.56
2022-08-07T02:42:51.817Z,76.69
2022-08-07T02:46:00.479Z,77.16
2022-08-07T02:48:10.172Z,77.08
2022-08-07T02:50:42.531Z,77.03
2022-08-07T02:53:11.622Z,77.16
2022-08-07T02:56:04.287Z,76.70
2022-08-07T02:58:33.466Z,76.75
2022-08-07T03:01:02.115Z,76.60
2022-08-07T03:03:49.984Z,76.87
2022-08-07T03:06:25.646Z,76.52
2022-08-07T03:09:00.714Z,76.58
2022-08-07T03:11:28.463Z,76.48
2022-08-07T03:13:57.676Z,76.55
2022-08-07T03:16:30.544Z,76.50
2022-08-07T03:19:01.246Z,76.81
2022-08-07T03:21:28.502Z,76.27
2022-08-07T03:24:20.558Z,75.79
2022-08-07T03:26:58.479Z,76.17
2022-08-07T03:29:29.320Z,75.62
2022-08-07T03:31:57.098Z,75.46
2022-08-07T03:34:27.535Z,76.22
2022-08-07T03:36:59.672Z,75.49
2022-08-07T03:39:46.288Z,75.64
2022-08-07T03:42:16.885Z,75.51
2022-08-07T03:44:47.209Z,75.87
2022-08-07T03:47:21.224Z,75.84
2022-08-07T03:49:52.318Z,76.14
2022-08-07T03:52:27.635Z,76.95
2022-08-07T03:54:59.176Z,76.60
2022-08-07T03:58:35.343Z,76.63
2022-08-07T04:00:29.229Z,77.30
2022-08-07T04:03:03.935Z,77.45
2022-08-07T04:05:39.617Z,77.72
2022-08-07T04:08:18.378Z,78.38
2022-08-07T04:10:54.741Z,78.54
2022-08-07T04:14:10.700Z,79.50
2022-08-07T04:16:30.080Z,79.65
2022-08-07T04:19:01.587Z,80.02
2022-08-07T04:21:33.570Z,80.25
2022-08-07T04:24:07.281Z,80.72
2022-08-07T04:26:35.592Z,80.60
2022-08-07T04:29:03.300Z,80.15
2022-08-07T04:31:38.982Z,79.51
2022-08-07T04:34:27.434Z,81.10
2022-08-07T04:37:01.233Z,80.93
2022-08-07T04:39:28.465Z,79.97
2022-08-07T04:42:03.898Z,77.80
2022-08-07T04:44:32.527Z,76.84
2022-08-07T04:47:08.096Z,76.19
2022-08-07T04:50:03.583Z,75.68
2022-08-07T04:52:51.046Z,74.76
2022-08-07T04:58:11.156Z,74.02
2022-08-07T04:58:47.282Z,73.34
2022-08-07T05:01:14.427Z,72.79
2022-08-07T05:04:07.132Z,72.44
2022-08-07T05:06:51.228Z,71.25
2022-08-07T05:09:46.974Z,71.46
2022-08-07T05:12:26.859Z,70.08
2022-08-07T05:15:03.297Z,70.59
2022-08-07T05:17:51.990Z,69.75
2022-08-07T05:20:22.392Z,70.28
2022-08-07T05:22:51.206Z,69.21
2022-08-07T05:25:25.760Z,70.01
2022-08-07T05:28:21.196Z,70.78
2022-08-07T05:30:52.232Z,70.62
2022-08-07T05:33:20.841Z,69.42
2022-08-07T05:35:52.705Z,70.02
2022-08-07T05:39:01.237Z,68.85
2022-08-07T05:41:14.327Z,68.91
2022-08-07T05:44:07.748Z,69.60
2022-08-07T05:46:34.847Z,67.34
2022-08-07T05:49:11.929Z,67.29
2022-08-07T05:51:46.623Z,67.78
2022-08-07T05:54:30.822Z,65.61
2022-08-07T05:57:01.082Z,65.55
2022-08-07T05:59:38.973Z,66.63
2022-08-07T06:02:28.436Z,64.44
2022-08-07T06:04:59.420Z,65.11
2022-08-07T06:08:14.135Z,63.21
2022-08-07T06:10:15.666Z,62.53
2022-08-07T06:12:44.506Z,62.82
2022-08-07T06:15:15.946Z,63.31
2022-08-07T06:17:53.325Z,63.32
2022-08-07T06:20:32.242Z,63.67
2022-08-07T06:23:46.558Z,62.88
2022-08-07T06:25:58.542Z,62.09
2022-08-07T06:28:28.093Z,61.68
2022-08-07T06:30:58.347Z,60.29
2022-08-07T06:33:26.389Z,59.87
2022-08-07T06:36:11.725Z,60.04
2022-08-07T06:38:59.569Z,59.27
2022-08-07T06:42:02.081Z,58.30
2022-08-07T06:44:51.216Z,57.80
2022-08-07T06:47:19.451Z,57.15
2022-08-07T06:49:51.971Z,54.16
2022-08-07T06:52:31.628Z,52.15
2022-08-07T06:55:32.412Z,52.58
2022-08-07T06:57:59.709Z,51.61
2022-08-07T07:00:32.561Z,52.39
2022-08-07T07:03:08.851Z,51.14
2022-08-07T07:06:03.134Z,51.06
2022-08-07T07:08:29.855Z,51.32
2022-08-07T07:11:00.990Z,49.97
2022-08-07T07:13:43.549Z,50.49
2022-08-07T07:16:23.794Z,49.49
2022-08-07T07:19:11.201Z,49.19
2022-08-07T07:22:05.053Z,49.09
2022-08-07T07:24:37.547Z,49.33
2022-08-07T07:27:05.804Z,49.41
2022-08-07T07:29:56.258Z,47.99
2022-08-07T07:32:23.437Z,48.40
2022-08-07T07:34:52.492Z,47.32
2022-08-07T07:37:45.075Z,47.21
2022-08-07T07:40:14.801Z,46.99
2022-08-07T07:42:43.477Z,47.19
2022-08-07T07:45:18.271Z,45.46
2022-08-07T07:47:52.509Z,45.66
2022-08-07T07:50:35.770Z,46.49
2022-08-07T07:53:20.363Z,45.85
2022-08-07T07:55:54.997Z,45.27
2022-08-07T07:58:30.749Z,46.11
2022-08-07T08:02:02.341Z,44.38
2022-08-07T08:04:09.522Z,43.51
2022-08-07T08:06:39.304Z,44.49
2022-08-07T08:09:07.067Z,44.53
2022-08-07T08:11:59.207Z,42.40
2022-08-07T08:14:26.413Z,44.08
2022-08-07T08:16:54.841Z,44.01
2022-08-07T08:20:18.825Z,43.73
2022-08-07T08:22:13.224Z,41.16
2022-08-07T08:24:45.305Z,41.55
2022-08-07T08:27:16.585Z,42.75
2022-08-07T08:29:56.022Z,41.74
2022-08-07T08:32:38.458Z,42.72
2022-08-07T08:35:08.027Z,41.73
2022-08-07T08:37:59.899Z,42.06
2022-08-07T08:40:30.268Z,42.48
2022-08-07T08:43:08.745Z,41.97
2022-08-07T08:45:59.154Z,41.67
2022-08-07T08:48:38.412Z,41.48
2022-08-07T08:51:49.180Z,41.13
2022-08-07T08:54:15.978Z,40.69
2022-08-07T08:56:47.911Z,40.90
2022-08-07T08:59:16.549Z,41.14
2022-08-07T09:01:53.822Z,41.87
2022-08-07T09:04:36.649Z,40.10
2022-08-07T09:07:11.295Z,40.85
2022-08-07T09:09:47.454Z,40.46
2022-08-07T09:12:32.253Z,41.08
2022-08-07T09:16:22.695Z,39.56
2022-08-07T09:18:15.895Z,39.58
2022-08-07T09:20:58.448Z,38.91
2022-08-07T09:24:28.589Z,38.87
2022-08-07T09:26:31.223Z,39.01
2022-08-07T09:30:06.614Z,39.29
2022-08-07T09:32:18.554Z,37.35
2022-08-07T09:34:54.698Z,37.28
2022-08-07T09:37:48.505Z,38.14
2022-08-07T09:40:21.028Z,38.14
2022-08-07T09:42:52.693Z,36.37
2022-08-07T09:47:24.222Z,35.71
2022-08-07T09:49:02.549Z,36.38
2022-08-07T09:52:15.901Z,36.15
2022-08-07T09:54:43.965Z,36.04
2022-08-07T09:57:29.786Z,36.60
2022-08-07T10:00:01.372Z,37.42
2022-08-07T10:03:08.377Z,37.20
2022-08-07T10:06:00.711Z,35.39
2022-08-07T10:08:49.638Z,36.02
2022-08-07T10:11:59.737Z,35.89
2022-08-07T10:14:35.849Z,36.12
2022-08-07T10:17:14.241Z,35.58
2022-08-07T10:19:43.267Z,36.12
2022-08-07T10:22:36.705Z,35.73
2022-08-07T10:25:22.589Z,35.22
2022-08-07T10:28:12.513Z,36.54
2022-08-07T10:30:51.404Z,36.71
2022-08-07T10:34:04.973Z,36.02
2022-08-07T10:36:14.047Z,36.38
2022-08-07T10:38:52.819Z,36.57
2022-08-07T10:41:45.958Z,36.61
2022-08-07T10:44:19.676Z,37.45
2022-08-07T10:47:05.804Z,38.01
2022-08-07T10:49:49.918Z,35.86
2022-08-07T10:52:33.968Z,36.35
2022-08-07T10:55:20.826Z,37.35
2022-08-07T10:57:56.291Z,36.66
2022-08-07T11:00:39.344Z,35.60
2022-08-07T11:03:37.643Z,35.12
2022-08-07T11:06:23.592Z,36.13
2022-08-07T11:09:03.051Z,35.83
2022-08-07T11:11:38.143Z,36.20
2022-08-07T11:14:56.823Z,36.37
2022-08-07T11:17:42.638Z,37.96
2022-08-07T11:20:09.818Z,36.28
2022-08-07T11:22:55.185Z,36.62
2022-08-07T11:25:36.105Z,36.49
2022-08-07T11:28:35.157Z,36.46
2022-08-07T11:31:08.891Z,37.11
2022-08-07T11:33:54.079Z,36.81
2022-08-07T11:36:45.870Z,35.69
2022-08-07T11:39:39.639Z,36.75
2022-08-07T11:42:21.870Z,34.47
2022-08-07T11:44:57.506Z,35.64
2022-08-07T11:47:39.154Z,35.10
2022-08-07T11:50:32.437Z,35.61
2022-08-07T11:53:18.797Z,34.54
2022-08-07T11:56:12.038Z,36.15
2022-08-07T11:58:35.666Z,35.90
2022-08-07T12:01:06.645Z,34.84
2022-08-07T12:03:53.995Z,34.82
2022-08-07T12:06:38.863Z,34.23
2022-08-07T12:09:16.098Z,34.39
2022-08-07T12:12:09.339Z,34.47
2022-08-07T12:14:52.756Z,34.01
2022-08-07T12:17:27.769Z,34.12
2022-08-07T12:20:29.761Z,34.17
2022-08-07T12:23:09.192Z,35.70
2022-08-07T12:26:03.448Z,34.78
2022-08-07T12:28:31.130Z,34.91
2022-08-07T12:31:03.401Z,33.32
2022-08-07T12:34:00.635Z,33.37
2022-08-07T12:36:19.500Z,33.47
2022-08-07T12:39:01.868Z,34.21
2022-08-07T12:41:49.242Z,33.44
2022-08-07T12:44:19.508Z,33.83
2022-08-07T12:47:00.133Z,34.47
2022-08-07T12:49:48.916Z,34.14
2022-08-07T12:52:33.876Z,33.91
2022-08-07T12:55:05.246Z,35.04
2022-08-07T12:57:59.198Z,33.62
2022-08-07T13:00:32.560Z,33.15
2022-08-07T13:03:06.762Z,33.95
2022-08-07T13:06:02.521Z,33.41
2022-08-07T13:08:36.378Z,33.90
2022-08-07T13:11:23.694Z,32.83
2022-08-07T13:13:50.570Z,33.39
2022-08-07T13:16:21.555Z,33.55
2022-08-07T13:18:56.896Z,32.91
2022-08-07T13:21:57.288Z,33.33
2022-08-07T13:24:29.445Z,32.86
2022-08-07T13:27:08.593Z,33.58
2022-08-07T13:29:42.511Z,33.21
2022-08-07T13:32:31.695Z,33.10
2022-08-07T13:35:03.270Z,33.48
2022-08-07T13:37:41.755Z,34.32
2022-08-07T13:40:36.819Z,33.57
2022-08-07T13:43:11.926Z,34.00
2022-08-07T13:46:11.831Z,33.61
2022-08-07T13:48:38.622Z,33.78
2022-08-07T13:51:26.970Z,33.18
2022-08-07T13:54:00.772Z,33.02
2022-08-07T13:56:40.762Z,34.20
2022-08-07T13:59:13.603Z,34.10
2022-08-07T14:01:51.391Z,32.14
2022-08-07T14:04:35.571Z,33.18
2022-08-07T14:07:09.168Z,33.02
2022-08-07T14:10:00.598Z,32.06
2022-08-07T14:12:30.571Z,32.18
2022-08-07T14:15:04.682Z,32.45
2022-08-07T14:18:23.445Z,32.99
2022-08-07T14:20:42.249Z,33.00
2022-08-07T14:23:59.232Z,32.59
2022-08-07T14:26:28.239Z,32.08
2022-08-07T14:29:10.640Z,32.66
2022-08-07T14:31:56.050Z,31.91
2022-08-07T14:34:29.640Z,33.34
2022-08-07T14:37:01.903Z,33.38
2022-08-07T14:40:17.665Z,31.74
2022-08-07T14:42:23.153Z,33.25
2022-08-07T14:44:53.073Z,32.67
2022-08-07T14:47:20.929Z,32.68
2022-08-07T14:52:38.436Z,32.35
2022-08-07T14:55:05.985Z,32.20
2022-08-07T14:57:58.186Z,32.22
2022-08-07T15:00:30.437Z,31.67
2022-08-07T15:03:16.710Z,31.20
2022-08-07T15:05:54.661Z,30.97
2022-08-07T15:08:35.450Z,30.48
2022-08-07T15:14:10.847Z,31.13
2022-08-07T15:16:54.783Z,30.54
2022-08-07T15:20:30.823Z,30.53
2022-08-07T15:22:29.394Z,30.60
2022-08-07T15:25:15.070Z,30.18
2022-08-07T15:28:32.930Z,30.18
2022-08-07T15:30:35.320Z,29.70
2022-08-07T15:33:05.502Z,29.94
2022-08-07T15:36:01.826Z,30.44
2022-08-07T15:44:12.462Z,29.74
2022-08-07T15:46:51.885Z,29.08
2022-08-07T15:49:25.250Z,29.45
2022-08-07T15:54:39.523Z,29.94
2022-08-07T15:57:27.655Z,29.08
2022-08-07T15:59:59.271Z,28.48
2022-08-07T16:02:28.123Z,28.45
2022-08-07T16:04:59.960Z,27.75
2022-08-07T16:08:31.005Z,28.84
2022-08-07T16:10:20.617Z,29.39
2022-08-07T16:13:01.108Z,29.95
2022-08-07T16:15:57.234Z,30.63
2022-08-07T16:18:50.475Z,30.40
2022-08-07T16:22:02.205Z,31.16
2022-08-07T16:24:35.430Z,31.83
2022-08-07T16:27:02.486Z,32.28
2022-08-07T16:30:10.656Z,33.01
2022-08-07T16:32:35.351Z,32.75
2022-08-07T16:35:56.925Z,33.01
2022-08-07T16:38:11.471Z,32.90
2022-08-07T16:41:02.156Z,33.19
2022-08-07T16:44:06.453Z,33.14
2022-08-07T16:50:20.466Z,33.66
2022-08-07T16:52:55.869Z,33.28
2022-08-07T16:55:47.105Z,33.62
2022-08-07T16:58:54.365Z,34.30
2022-08-07T17:01:41.338Z,34.48
2022-08-07T17:04:14.981Z,34.43
2022-08-07T17:07:10.291Z,34.62
2022-08-07T17:10:08.154Z,34.67
2022-08-07T17:12:44.620Z,34.76
2022-08-07T17:15:12.196Z,35.22
2022-08-07T17:17:49.161Z,35.45
2022-08-07T17:20:22.606Z,35.58
2022-08-07T17:23:02.426Z,35.98
2022-08-07T17:25:47.255Z,35.88
2022-08-07T17:28:23.759Z,36.03
2022-08-07T17:31:16.386Z,36.38
2022-08-07T17:34:15.400Z,35.88
2022-08-07T17:36:57.996Z,36.96
2022-08-07T17:39:58.436Z,36.59
2022-08-07T17:42:32.287Z,36.68
2022-08-07T17:44:59.157Z,36.86
2022-08-07T17:47:42.135Z,36.86
2022-08-07T17:50:21.961Z,37.42
2022-08-07T17:53:23.558Z,37.43
2022-08-07T17:56:15.227Z,37.31
2022-08-07T17:58:59.152Z,37.81
2022-08-07T18:01:36.635Z,37.82
2022-08-07T18:04:31.197Z,37.51
2022-08-07T18:07:20.095Z,37.61
2022-08-07T18:10:05.774Z,37.78
2022-08-07T18:12:40.949Z,37.97
2022-08-07T18:15:34.024Z,38.01
2022-08-07T18:18:45.243Z,38.01
2022-08-07T18:21:37.088Z,38.29
2022-08-07T18:24:09.054Z,38.37
2022-08-07T18:26:38.860Z,38.24
2022-08-07T18:30:05.335Z,38.46
2022-08-07T18:32:29.905Z,38.75
2022-08-07T18:35:15.735Z,38.45
2022-08-07T18:38:56.828Z,38.29
2022-08-07T18:40:56.395Z,38.55
2022-08-07T18:43:42.733Z,38.92
2022-08-07T18:46:26.827Z,38.88
2022-08-07T18:50:32.631Z,39.24
2022-08-07T18:52:34.311Z,39.41
2022-08-07T18:55:40.283Z,39.63
2022-08-07T18:57:59.489Z,40.26
2022-08-07T19:00:35.606Z,40.21
2022-08-07T19:03:11.609Z,41.51
2022-08-07T19:06:04.119Z,40.64
2022-08-07T19:08:40.765Z,41.30
2022-08-07T19:11:36.639Z,41.17
2022-08-07T19:14:11.826Z,41.54
2022-08-07T19:17:09.366Z,41.47
2022-08-07T19:19:49.773Z,42.08
2022-08-07T19:22:44.890Z,41.86
2022-08-07T19:25:13.402Z,42.06
2022-08-07T19:28:29.694Z,42.24
2022-08-07T19:30:55.809Z,41.93
2022-08-07T19:33:37.013Z,42.17
2022-08-07T19:36:04.585Z,42.59
2022-08-07T19:38:33.885Z,42.59
2022-08-07T19:41:01.966Z,43.55
2022-08-07T19:43:44.269Z,43.31
2022-08-07T19:46:19.058Z,43.22
2022-08-07T19:48:53.706Z,43.25
2022-08-07T19:51:50.994Z,42.85
2022-08-07T19:54:31.664Z,42.86
2022-08-07T19:58:00.479Z,43.29
2022-08-07T19:59:47.983Z,43.24
2022-08-07T20:02:20.956Z,43.53
2022-08-07T20:04:49.737Z,43.80
2022-08-07T20:07:23.673Z,44.52
2022-08-07T20:10:34.031Z,45.46
2022-08-07T20:12:43.217Z,45.95
2022-08-07T20:15:18.787Z,45.57
2022-08-07T20:18:01.324Z,46.65
2022-08-07T20:20:31.383Z,46.81
2022-08-07T20:23:01.364Z,46.36
2022-08-07T20:25:40.509Z,47.79
2022-08-07T20:28:17.829Z,48.49
2022-08-07T20:30:49.135Z,48.96
2022-08-07T20:33:36.845Z,49.78
2022-08-07T20:36:06.645Z,49.52
2022-08-07T20:38:34.960Z,50.83
2022-08-07T20:41:03.728Z,50.67
2022-08-07T20:43:34.907Z,51.18
2022-08-07T20:46:28.847Z,51.07
2022-08-07T20:49:53.995Z,51.95
2022-08-07T20:51:40.590Z,51.26
2022-08-07T20:54:29.625Z,52.29
2022-08-07T20:57:00.589Z,51.22
2022-08-07T21:00:06.501Z,51.56
2022-08-07T21:02:23.142Z,52.09
2022-08-07T21:04:54.731Z,52.39
2022-08-07T21:07:24.917Z,53.40
2022-08-07T21:09:59.086Z,53.62
2022-08-07T21:12:31.078Z,53.19
2022-08-07T21:14:59.343Z,53.68
2022-08-07T21:18:02.149Z,54.03
2022-08-07T21:20:29.820Z,54.84
2022-08-07T21:22:58.323Z,55.51
2022-08-07T21:25:43.729Z,55.96
2022-08-07T21:28:18.947Z,56.82
2022-08-07T21:31:08.255Z,56.77
2022-08-07T21:33:50.926Z,57.22
2022-08-07T21:36:31.915Z,56.62
2022-08-07T21:39:46.279Z,57.44
2022-08-07T21:42:04.796Z,58.13
2022-08-07T21:44:51.076Z,58.51
2022-08-07T21:47:25.879Z,58.67
2022-08-07T21:50:02.675Z,58.87
2022-08-07T21:52:49.088Z,58.30
2022-08-07T21:55:29.838Z,59.74
2022-08-07T21:58:00.182Z,59.24
2022-08-07T22:00:31.085Z,59.27
2022-08-07T22:03:06.580Z,59.13
2022-08-07T22:05:45.189Z,59.61
2022-08-07T22:08:18.967Z,60.01
2022-08-07T22:10:48.366Z,59.38
2022-08-07T22:13:16.610Z,59.45
2022-08-07T22:16:38.624Z,59.88
2022-08-07T22:18:37.291Z,59.13
2022-08-07T22:21:11.504Z,58.98
2022-08-07T22:23:54.709Z,58.60
2022-08-07T22:26:23.857Z,58.92
2022-08-07T22:28:53.160Z,59.27
2022-08-07T22:31:59.177Z,58.73
2022-08-07T22:34:13.673Z,58.15
2022-08-07T22:36:52.623Z,58.18
2022-08-07T22:39:26.517Z,59.07
2022-08-07T22:42:19.265Z,58.54
2022-08-07T22:44:59.094Z,59.35
2022-08-07T22:47:40.055Z,58.36
2022-08-07T22:50:36.215Z,57.98
2022-08-07T22:53:05.821Z,57.95
2022-08-07T22:55:37.161Z,58.19
2022-08-07T22:58:06.748Z,58.47
2022-08-07T23:00:42.540Z,58.18
2022-08-07T23:03:15.450Z,58.89
2022-08-07T23:06:15.704Z,58.59
2022-08-07T23:10:06.206Z,58.98
2022-08-07T23:12:10.804Z,59.32
2022-08-07T23:15:06.132Z,60.29
2022-08-07T23:17:48.849Z,59.80
2022-08-07T23:20:18.424Z,60.75
2022-08-07T23:23:05.145Z,61.72
2022-08-07T23:25:48.707Z,62.39
2022-08-07T23:28:34.343Z,60.89
2022-08-07T23:31:13.873Z,61.34
2022-08-07T23:34:21.611Z,61.40
2022-08-07T23:37:19.928Z,61.47
2022-08-07T23:39:42.279Z,61.75
2022-08-07T23:42:09.111Z,61.98
2022-08-07T23:45:03.382Z,62.28
2022-08-07T23:47:48.021Z,61.82
2022-08-07T23:50:17.892Z,61.86
2022-08-07T23:53:11.876Z,62.98
2022-08-07T23:55:52.413Z,62.25
2022-08-07T23:58:26.099Z,61.98
